地図

経路データ

SID SEASON NUMBER BASIN SUBBASIN NAME ISO_TIME NATURE LAT LON WMO_WIND WMO_PRES WMO_AGENCY TRACK_TYPE DIST2LAND LANDFALL IFLAG USA_AGENCY USA_ATCF_ID USA_LAT USA_LON USA_RECORD USA_STATUS USA_WIND USA_PRES USA_SSHS USA_R34_NE USA_R34_SE USA_R34_SW USA_R34_NW USA_R50_NE USA_R50_SE USA_R50_SW USA_R50_NW USA_R64_NE USA_R64_SE USA_R64_SW USA_R64_NW USA_POCI USA_ROCI USA_RMW USA_EYE TOKYO_LAT TOKYO_LON TOKYO_GRADE TOKYO_WIND TOKYO_PRES TOKYO_R50_DIR TOKYO_R50_LONG TOKYO_R50_SHORT TOKYO_R30_DIR TOKYO_R30_LONG TOKYO_R30_SHORT TOKYO_LAND CMA_LAT CMA_LON CMA_CAT CMA_WIND CMA_PRES HKO_LAT HKO_LON HKO_CAT HKO_WIND HKO_PRES NEWDELHI_LAT NEWDELHI_LON NEWDELHI_GRADE NEWDELHI_WIND NEWDELHI_PRES NEWDELHI_CI NEWDELHI_DP NEWDELHI_POCI REUNION_LAT REUNION_LON REUNION_TYPE REUNION_WIND REUNION_PRES REUNION_TNUM REUNION_CI REUNION_RMW REUNION_R34_NE REUNION_R34_SE REUNION_R34_SW REUNION_R34_NW REUNION_R50_NE REUNION_R50_SE REUNION_R50_SW REUNION_R50_NW REUNION_R64_NE REUNION_R64_SE REUNION_R64_SW REUNION_R64_NW BOM_LAT BOM_LON BOM_TYPE BOM_WIND BOM_PRES BOM_TNUM BOM_CI BOM_RMW BOM_R34_NE BOM_R34_SE BOM_R34_SW BOM_R34_NW BOM_R50_NE BOM_R50_SE BOM_R50_SW BOM_R50_NW BOM_R64_NE BOM_R64_SE BOM_R64_SW BOM_R64_NW BOM_ROCI BOM_POCI BOM_EYE BOM_POS_METHOD BOM_PRES_METHOD NADI_LAT NADI_LON NADI_CAT NADI_WIND NADI_PRES WELLINGTON_LAT WELLINGTON_LON WELLINGTON_WIND WELLINGTON_PRES DS824_LAT DS824_LON DS824_STAGE DS824_WIND DS824_PRES TD9636_LAT TD9636_LON TD9636_STAGE TD9636_WIND TD9636_PRES TD9635_LAT TD9635_LON TD9635_WIND TD9635_PRES TD9635_ROCI NEUMANN_LAT NEUMANN_LON NEUMANN_CLASS NEUMANN_WIND NEUMANN_PRES MLC_LAT MLC_LON MLC_CLASS MLC_WIND MLC_PRES USA_GUST BOM_GUST BOM_GUST_PER REUNION_GUST REUNION_GUST_PER USA_SEAHGT USA_SEARAD_NE USA_SEARAD_SE USA_SEARAD_SW USA_SEARAD_NW STORM_SPEED STORM_DIR
1878010S19054 1878 1 SI MM NOT_NAMED 1878-01-10 00:00:00 TS -18.5000 54.2000 main 302 267 _________O____ -1 -18.5000 54.2000 TC 12 211
1878010S19054 1878 1 SI MM NOT_NAMED 1878-01-10 03:00:00 TS -19.0026 53.8829 main 267 244 _________P____ -1 -19.0026 53.8829 TC 12 210
1878010S19054 1878 1 SI MM NOT_NAMED 1878-01-10 06:00:00 TS -19.5000 53.6000 main 244 224 _________O____ -1 -19.5000 53.6000 TC 11 206
1878010S19054 1878 1 SI MM NOT_NAMED 1878-01-10 09:00:00 TS -19.9924 53.3773 main 224 216 _________P____ -1 -19.9924 53.3773 TC 11 201
1878010S19054 1878 1 SI MM NOT_NAMED 1878-01-10 12:00:00 TS -20.5000 53.2000 main 218 215 _________O____ -1 -20.5000 53.2000 TC 11 197
1878010S19054 1878 1 SI MM NOT_NAMED 1878-01-10 15:00:00 TS -21.0425 53.0349 main 228 228 _________P____ -1 -21.0425 53.0349 TC 11 194
1878010S19054 1878 1 SI MM NOT_NAMED 1878-01-10 18:00:00 TS -21.6000 52.9000 main 244 244 _________O____ -1 -21.6000 52.9000 TC 11 192
1878010S19054 1878 1 SI MM NOT_NAMED 1878-01-10 21:00:00 TS -22.1425 52.7923 main 272 272 _________P____ -1 -22.1425 52.7923 TC 11 190
1878010S19054 1878 1 SI MM NOT_NAMED 1878-01-11 00:00:00 TS -22.7000 52.7000 main 310 310 _________O____ -1 -22.7000 52.7000 TC 12 189
1878010S19054 1878 1 SI MM NOT_NAMED 1878-01-11 03:00:00 TS -23.2925 52.5851 main 356 356 _________P____ -1 -23.2925 52.5851 TC 12 189
1878010S19054 1878 1 SI MM NOT_NAMED 1878-01-11 06:00:00 TS -23.9000 52.5000 main 408 408 _________O____ -1 -23.9000 52.5000 TC 12 185
1878010S19054 1878 1 SI MM NOT_NAMED 1878-01-11 09:00:00 TS -24.4925 52.4700 main 458 458 _________P____ -1 -24.4925 52.4700 TC 12 179
1878010S19054 1878 1 SI MM NOT_NAMED 1878-01-11 12:00:00 TS -25.1000 52.5000 main 512 512 _________O____ -1 -25.1000 52.5000 TC 13 176
1878010S19054 1878 1 SI MM NOT_NAMED 1878-01-11 15:00:00 TS -25.7500 52.5701 main 548 548 _________P____ -1 -25.7500 52.5701 TC 13 172
1878010S19054 1878 1 SI MM NOT_NAMED 1878-01-11 18:00:00 TS -26.4000 52.7000 main 581 581 _________O____ -1 -26.4000 52.7000 TC 13 168
1878010S19054 1878 1 SI MM NOT_NAMED 1878-01-11 21:00:00 TS -27.0075 52.8776 main 620 620 _________P____ -1 -27.0075 52.8776 TC 13 163
1878010S19054 1878 1 SI MM NOT_NAMED 1878-01-12 00:00:00 TS -27.6000 53.1000 main 664 664 _________O____ -1 -27.6000 53.1000 TC 13 161
1878010S19054 1878 1 SI MM NOT_NAMED 1878-01-12 03:00:00 TS -28.1999 53.3279 main 711 711 _________P____ -1 -28.1999 53.3279 TC 13 160
1878010S19054 1878 1 SI MM NOT_NAMED 1878-01-12 06:00:00 TS -28.8000 53.6000 main 770 770 _________O____ -1 -28.8000 53.6000 TC 13 156
1878010S19054 1878 1 SI MM NOT_NAMED 1878-01-12 09:00:00 TS -29.4225 53.9349 main 832 832 _________P____ -1 -29.4225 53.9349 TC 14 153
1878010S19054 1878 1 SI MM NOT_NAMED 1878-01-12 12:00:00 TS -30.0000 54.3000 main 902 902 _________O____ -1 -30.0000 54.3000 TC 12 150
1878010S19054 1878 1 SI MM NOT_NAMED 1878-01-12 15:00:00 TS -30.4798 54.6357 main 959 959 _________P____ -1 -30.4798 54.6357 TC 11 146
1878010S19054 1878 1 SI MM NOT_NAMED 1878-01-12 18:00:00 TS -30.9000 55.0000 main 1016 1016 _________O____ -1 -30.9000 55.0000 TC 11 141
1878010S19054 1878 1 SI MM NOT_NAMED 1878-01-12 21:00:00 TS -31.3074 55.4279 main 1074 1074 _________P____ -1 -31.3074 55.4279 TC 11 136
1878010S19054 1878 1 SI MM NOT_NAMED 1878-01-13 00:00:00 TS -31.7000 55.9000 main 1138 1138 _________O____ -1 -31.7000 55.9000 TC 11 134
1878010S19054 1878 1 SI MM NOT_NAMED 1878-01-13 03:00:00 TS -32.0998 56.3854 main 1197 1197 _________P____ -1 -32.0998 56.3854 TC 12 133
1878010S19054 1878 1 SI MM NOT_NAMED 1878-01-13 06:00:00 TS -32.5000 56.9000 main 1246 1246 _________O____ -1 -32.5000 56.9000 TC 12 132
1878010S19054 1878 1 SI MM NOT_NAMED 1878-01-13 09:00:00 TS -32.8999 57.4429 main 1296 1296 _________P____ -1 -32.8999 57.4429 TC 12 131
1878010S19054 1878 1 SI MM NOT_NAMED 1878-01-13 12:00:00 TS -33.3000 58.0000 main 1349 1349 _________O____ -1 -33.3000 58.0000 TC 12 131
1878010S19054 1878 1 SI MM NOT_NAMED 1878-01-13 15:00:00 TS -33.6998 58.5579 main 1404 1404 _________P____ -1 -33.6998 58.5579 TC 12 131
1878010S19054 1878 1 SI MM NOT_NAMED 1878-01-13 18:00:00 TS -34.1000 59.1000 main 1458 1458 _________O____ -1 -34.1000 59.1000 TC 12 133
1878010S19054 1878 1 SI MM NOT_NAMED 1878-01-13 21:00:00 TS -34.5003 59.6091 main 1513 1513 _________P____ -1 -34.5003 59.6091 TC 11 134
1878010S19054 1878 1 SI MM NOT_NAMED 1878-01-14 00:00:00 TS -34.9000 60.1000 main 1569 _________O____ -1 -34.9000 60.1000 TC 11 135

IBTrACS Databaseについて

本データベースは、米国NOAAが公開する1842年以降の世界の熱帯低気圧のベストトラックデータアーカイブInternational Best Track Archive for Climate Stewardship (IBTrACS)を、ウェブで閲覧しやすい形式に変換したものです。

最終更新日:2021-12-08